sensor_id;sensor_type;location;lat;lon;timestamp;P1;durP1;ratioP1;P2;durP2;ratioP2
15317;SDS011;7759;52.528;13.346;2022-12-15T00:02:21;31.70;;;14.70;;
15317;SDS011;7759;52.528;13.346;2022-12-15T00:05:06;35.30;;;15.67;;
15317;SDS011;7759;52.528;13.346;2022-12-15T00:07:50;29.27;;;13.63;;
15317;SDS011;7759;52.528;13.346;2022-12-15T00:10:35;25.63;;;12.80;;
15317;SDS011;7759;52.528;13.346;2022-12-15T00:13:19;27.93;;;11.77;;
15317;SDS011;7759;52.528;13.346;2022-12-15T00:16:04;40.03;;;17.03;;
15317;SDS011;7759;52.528;13.346;2022-12-15T00:18:48;32.27;;;14.63;;
15317;SDS011;7759;52.528;13.346;2022-12-15T00:21:33;32.93;;;14.50;;
15317;SDS011;7759;52.528;13.346;2022-12-15T00:24:17;29.60;;;12.90;;
15317;SDS011;7759;52.528;13.346;2022-12-15T00:27:02;32.97;;;13.53;;
15317;SDS011;7759;52.528;13.346;2022-12-15T00:29:47;36.73;;;15.13;;
15317;SDS011;7759;52.528;13.346;2022-12-15T00:32:31;34.37;;;14.20;;
15317;SDS011;7759;52.528;13.346;2022-12-15T00:35:16;38.63;;;15.33;;
15317;SDS011;7759;52.528;13.346;2022-12-15T00:38:07;36.47;;;14.10;;
15317;SDS011;7759;52.528;13.346;2022-12-15T00:40:52;41.87;;;15.97;;
15317;SDS011;7759;52.528;13.346;2022-12-15T00:43:23;35.47;;;15.27;;
15317;SDS011;7759;52.528;13.346;2022-12-15T00:45:49;37.03;;;15.10;;
15317;SDS011;7759;52.528;13.346;2022-12-15T00:48:33;36.50;;;15.13;;
15317;SDS011;7759;52.528;13.346;2022-12-15T00:50:59;32.00;;;14.37;;
15317;SDS011;7759;52.528;13.346;2022-12-15T00:53:25;34.03;;;15.70;;
15317;SDS011;7759;52.528;13.346;2022-12-15T00:56:10;36.53;;;17.00;;
15317;SDS011;7759;52.528;13.346;2022-12-15T00:58:54;32.63;;;14.87;;
15317;SDS011;7759;52.528;13.346;2022-12-15T01:01:39;33.73;;;15.57;;
15317;SDS011;7759;52.528;13.346;2022-12-15T01:04:23;29.43;;;14.47;;
15317;SDS011;7759;52.528;13.346;2022-12-15T01:07:08;35.93;;;15.27;;
15317;SDS011;7759;52.528;13.346;2022-12-15T01:09:53;38.47;;;16.77;;
15317;SDS011;7759;52.528;13.346;2022-12-15T01:12:37;34.60;;;15.30;;
15317;SDS011;7759;52.528;13.346;2022-12-15T01:15:22;34.00;;;15.37;;
15317;SDS011;7759;52.528;13.346;2022-12-15T01:18:06;33.47;;;15.00;;
15317;SDS011;7759;52.528;13.346;2022-12-15T01:20:55;40.50;;;16.40;;
15317;SDS011;7759;52.528;13.346;2022-12-15T01:23:21;36.80;;;15.77;;
15317;SDS011;7759;52.528;13.346;2022-12-15T01:25:48;33.37;;;15.30;;
15317;SDS011;7759;52.528;13.346;2022-12-15T01:28:15;36.33;;;16.10;;
15317;SDS011;7759;52.528;13.346;2022-12-15T01:30:41;30.80;;;13.27;;
15317;SDS011;7759;52.528;13.346;2022-12-15T01:33:06;34.13;;;15.40;;
15317;SDS011;7759;52.528;13.346;2022-12-15T01:35:33;29.23;;;12.73;;
15317;SDS011;7759;52.528;13.346;2022-12-15T01:37:59;31.97;;;13.17;;
15317;SDS011;7759;52.528;13.346;2022-12-15T01:40:25;36.47;;;13.30;;
15317;SDS011;7759;52.528;13.346;2022-12-15T01:43:11;35.13;;;15.53;;
15317;SDS011;7759;52.528;13.346;2022-12-15T01:45:48;31.37;;;13.37;;
15317;SDS011;7759;52.528;13.346;2022-12-15T01:48:17;26.67;;;11.07;;
15317;SDS011;7759;52.528;13.346;2022-12-15T01:50:45;26.03;;;11.43;;
15317;SDS011;7759;52.528;13.346;2022-12-15T01:53:12;33.00;;;13.37;;
15317;SDS011;7759;52.528;13.346;2022-12-15T01:55:39;28.67;;;13.20;;
15317;SDS011;7759;52.528;13.346;2022-12-15T01:58:07;28.90;;;12.60;;
15317;SDS011;7759;52.528;13.346;2022-12-15T02:00:34;31.70;;;12.73;;
15317;SDS011;7759;52.528;13.346;2022-12-15T02:03:00;29.20;;;13.40;;
15317;SDS011;7759;52.528;13.346;2022-12-15T02:05:27;26.13;;;11.67;;
15317;SDS011;7759;52.528;13.346;2022-12-15T02:07:53;30.20;;;13.07;;
15317;SDS011;7759;52.528;13.346;2022-12-15T02:10:19;25.00;;;11.73;;
15317;SDS011;7759;52.528;13.346;2022-12-15T02:12:49;33.40;;;12.57;;
15317;SDS011;7759;52.528;13.346;2022-12-15T02:15:23;21.47;;;10.30;;
15317;SDS011;7759;52.528;13.346;2022-12-15T02:20:41;25.73;;;11.43;;
15317;SDS011;7759;52.528;13.346;2022-12-15T02:26:01;36.77;;;14.97;;
15317;SDS011;7759;52.528;13.346;2022-12-15T02:31:17;40.10;;;16.23;;
15317;SDS011;7759;52.528;13.346;2022-12-15T02:34:13;30.97;;;12.97;;
15317;SDS011;7759;52.528;13.346;2022-12-15T02:36:41;29.57;;;13.67;;
15317;SDS011;7759;52.528;13.346;2022-12-15T02:39:12;21.27;;;10.73;;
15317;SDS011;7759;52.528;13.346;2022-12-15T02:41:39;22.80;;;10.53;;
15317;SDS011;7759;52.528;13.346;2022-12-15T02:44:11;25.53;;;10.60;;
15317;SDS011;7759;52.528;13.346;2022-12-15T02:46:41;22.53;;;10.30;;
15317;SDS011;7759;52.528;13.346;2022-12-15T02:49:30;26.33;;;11.43;;
15317;SDS011;7759;52.528;13.346;2022-12-15T02:57:44;27.07;;;11.27;;
15317;SDS011;7759;52.528;13.346;2022-12-15T03:00:12;25.23;;;11.10;;
15317;SDS011;7759;52.528;13.346;2022-12-15T03:02:41;25.30;;;10.50;;
15317;SDS011;7759;52.528;13.346;2022-12-15T03:05:09;27.83;;;11.10;;
15317;SDS011;7759;52.528;13.346;2022-12-15T03:07:37;25.27;;;10.83;;
15317;SDS011;7759;52.528;13.346;2022-12-15T03:10:03;22.23;;;10.17;;
15317;SDS011;7759;52.528;13.346;2022-12-15T03:12:30;21.77;;;10.67;;
15317;SDS011;7759;52.528;13.346;2022-12-15T03:14:56;28.33;;;11.73;;
15317;SDS011;7759;52.528;13.346;2022-12-15T03:17:22;26.53;;;11.33;;
15317;SDS011;7759;52.528;13.346;2022-12-15T03:19:48;20.13;;;9.67;;
15317;SDS011;7759;52.528;13.346;2022-12-15T03:22:14;21.77;;;9.57;;
15317;SDS011;7759;52.528;13.346;2022-12-15T03:24:40;21.77;;;9.53;;
15317;SDS011;7759;52.528;13.346;2022-12-15T03:27:06;22.60;;;9.77;;
15317;SDS011;7759;52.528;13.346;2022-12-15T03:29:32;21.50;;;9.70;;
15317;SDS011;7759;52.528;13.346;2022-12-15T03:31:58;24.50;;;10.33;;
15317;SDS011;7759;52.528;13.346;2022-12-15T03:34:24;22.03;;;10.27;;
15317;SDS011;7759;52.528;13.346;2022-12-15T03:36:50;25.50;;;10.90;;
15317;SDS011;7759;52.528;13.346;2022-12-15T03:39:16;20.93;;;10.03;;
15317;SDS011;7759;52.528;13.346;2022-12-15T03:41:42;27.97;;;11.40;;
15317;SDS011;7759;52.528;13.346;2022-12-15T03:44:07;28.53;;;11.57;;
15317;SDS011;7759;52.528;13.346;2022-12-15T03:46:33;25.67;;;12.00;;
15317;SDS011;7759;52.528;13.346;2022-12-15T03:48:59;24.03;;;10.97;;
15317;SDS011;7759;52.528;13.346;2022-12-15T03:51:26;28.83;;;11.80;;
15317;SDS011;7759;52.528;13.346;2022-12-15T03:53:52;31.03;;;12.57;;
15317;SDS011;7759;52.528;13.346;2022-12-15T03:56:18;29.10;;;11.17;;
15317;SDS011;7759;52.528;13.346;2022-12-15T03:58:45;28.37;;;11.17;;
15317;SDS011;7759;52.528;13.346;2022-12-15T04:01:12;30.27;;;11.70;;
15317;SDS011;7759;52.528;13.346;2022-12-15T04:03:38;26.20;;;11.13;;
15317;SDS011;7759;52.528;13.346;2022-12-15T04:06:04;23.00;;;10.40;;
15317;SDS011;7759;52.528;13.346;2022-12-15T04:08:30;20.23;;;8.93;;
15317;SDS011;7759;52.528;13.346;2022-12-15T04:10:56;23.10;;;11.83;;
15317;SDS011;7759;52.528;13.346;2022-12-15T04:13:22;31.30;;;12.40;;
15317;SDS011;7759;52.528;13.346;2022-12-15T04:15:47;28.77;;;11.77;;
15317;SDS011;7759;52.528;13.346;2022-12-15T04:18:13;24.53;;;10.77;;
15317;SDS011;7759;52.528;13.346;2022-12-15T04:20:39;27.53;;;11.60;;
15317;SDS011;7759;52.528;13.346;2022-12-15T04:23:05;33.47;;;14.17;;
15317;SDS011;7759;52.528;13.346;2022-12-15T04:25:31;21.50;;;9.63;;
15317;SDS011;7759;52.528;13.346;2022-12-15T04:28:16;35.70;;;14.13;;
15317;SDS011;7759;52.528;13.346;2022-12-15T04:31:02;31.40;;;12.30;;
15317;SDS011;7759;52.528;13.346;2022-12-15T04:33:50;31.07;;;12.40;;
15317;SDS011;7759;52.528;13.346;2022-12-15T04:36:36;36.00;;;15.23;;
15317;SDS011;7759;52.528;13.346;2022-12-15T04:39:21;24.27;;;10.43;;
15317;SDS011;7759;52.528;13.346;2022-12-15T04:42:06;28.30;;;12.33;;
15317;SDS011;7759;52.528;13.346;2022-12-15T04:44:50;28.87;;;11.90;;
15317;SDS011;7759;52.528;13.346;2022-12-15T04:47:36;22.37;;;10.43;;
15317;SDS011;7759;52.528;13.346;2022-12-15T04:50:21;25.83;;;11.17;;
15317;SDS011;7759;52.528;13.346;2022-12-15T04:53:06;27.53;;;11.73;;
15317;SDS011;7759;52.528;13.346;2022-12-15T04:55:51;27.43;;;11.57;;
15317;SDS011;7759;52.528;13.346;2022-12-15T04:58:35;26.63;;;10.57;;
15317;SDS011;7759;52.528;13.346;2022-12-15T05:01:20;24.93;;;11.50;;
15317;SDS011;7759;52.528;13.346;2022-12-15T05:04:04;23.70;;;10.33;;
15317;SDS011;7759;52.528;13.346;2022-12-15T05:06:49;24.13;;;10.63;;
15317;SDS011;7759;52.528;13.346;2022-12-15T05:09:33;34.13;;;13.93;;
15317;SDS011;7759;52.528;13.346;2022-12-15T05:12:18;32.50;;;15.00;;
15317;SDS011;7759;52.528;13.346;2022-12-15T05:15:02;34.90;;;14.50;;
15317;SDS011;7759;52.528;13.346;2022-12-15T05:17:46;35.83;;;13.83;;
15317;SDS011;7759;52.528;13.346;2022-12-15T05:20:31;30.07;;;12.63;;
15317;SDS011;7759;52.528;13.346;2022-12-15T05:23:16;27.33;;;12.40;;
15317;SDS011;7759;52.528;13.346;2022-12-15T05:26:00;30.83;;;12.90;;
15317;SDS011;7759;52.528;13.346;2022-12-15T05:28:45;25.97;;;11.53;;
15317;SDS011;7759;52.528;13.346;2022-12-15T05:31:29;36.17;;;14.40;;
15317;SDS011;7759;52.528;13.346;2022-12-15T05:34:14;28.00;;;13.37;;
15317;SDS011;7759;52.528;13.346;2022-12-15T05:36:40;27.80;;;10.93;;
15317;SDS011;7759;52.528;13.346;2022-12-15T05:39:06;33.10;;;13.00;;
15317;SDS011;7759;52.528;13.346;2022-12-15T05:41:32;32.70;;;12.53;;
15317;SDS011;7759;52.528;13.346;2022-12-15T05:43:58;33.87;;;13.97;;
15317;SDS011;7759;52.528;13.346;2022-12-15T05:46:24;30.57;;;13.27;;
15317;SDS011;7759;52.528;13.346;2022-12-15T05:48:50;33.50;;;13.33;;
15317;SDS011;7759;52.528;13.346;2022-12-15T05:51:16;35.73;;;13.57;;
15317;SDS011;7759;52.528;13.346;2022-12-15T05:53:42;31.87;;;12.70;;
15317;SDS011;7759;52.528;13.346;2022-12-15T05:56:09;31.67;;;12.77;;
15317;SDS011;7759;52.528;13.346;2022-12-15T05:58:36;31.90;;;12.77;;
15317;SDS011;7759;52.528;13.346;2022-12-15T06:01:03;34.80;;;13.83;;
15317;SDS011;7759;52.528;13.346;2022-12-15T06:03:29;32.97;;;13.93;;
15317;SDS011;7759;52.528;13.346;2022-12-15T06:05:55;34.57;;;12.70;;
15317;SDS011;7759;52.528;13.346;2022-12-15T06:08:22;18.70;;;9.53;;
15317;SDS011;7759;52.528;13.346;2022-12-15T06:10:54;24.83;;;10.77;;
15317;SDS011;7759;52.528;13.346;2022-12-15T06:13:21;25.83;;;11.57;;
15317;SDS011;7759;52.528;13.346;2022-12-15T06:16:21;23.23;;;10.60;;
15317;SDS011;7759;52.528;13.346;2022-12-15T06:18:41;24.40;;;11.60;;
15317;SDS011;7759;52.528;13.346;2022-12-15T06:21:11;37.23;;;14.53;;
15317;SDS011;7759;52.528;13.346;2022-12-15T06:23:37;34.47;;;13.33;;
15317;SDS011;7759;52.528;13.346;2022-12-15T06:26:11;41.37;;;14.27;;
15317;SDS011;7759;52.528;13.346;2022-12-15T06:28:38;30.10;;;12.03;;
15317;SDS011;7759;52.528;13.346;2022-12-15T06:31:04;28.63;;;12.37;;
15317;SDS011;7759;52.528;13.346;2022-12-15T06:33:30;33.67;;;13.20;;
15317;SDS011;7759;52.528;13.346;2022-12-15T06:36:00;32.93;;;13.57;;
15317;SDS011;7759;52.528;13.346;2022-12-15T06:38:27;29.90;;;11.83;;
15317;SDS011;7759;52.528;13.346;2022-12-15T06:40:54;29.60;;;11.83;;
15317;SDS011;7759;52.528;13.346;2022-12-15T06:43:20;29.57;;;12.83;;
15317;SDS011;7759;52.528;13.346;2022-12-15T06:45:49;30.30;;;13.23;;
15317;SDS011;7759;52.528;13.346;2022-12-15T06:48:15;32.27;;;13.63;;
15317;SDS011;7759;52.528;13.346;2022-12-15T06:50:41;25.53;;;12.07;;
15317;SDS011;7759;52.528;13.346;2022-12-15T06:53:07;34.90;;;13.90;;
15317;SDS011;7759;52.528;13.346;2022-12-15T06:55:33;25.03;;;11.70;;
15317;SDS011;7759;52.528;13.346;2022-12-15T06:57:59;21.80;;;10.80;;
15317;SDS011;7759;52.528;13.346;2022-12-15T07:00:25;30.67;;;13.57;;
15317;SDS011;7759;52.528;13.346;2022-12-15T07:02:51;31.97;;;13.37;;
15317;SDS011;7759;52.528;13.346;2022-12-15T07:05:17;32.43;;;12.63;;
15317;SDS011;7759;52.528;13.346;2022-12-15T07:07:43;25.73;;;11.80;;
15317;SDS011;7759;52.528;13.346;2022-12-15T07:10:09;29.37;;;12.63;;
15317;SDS011;7759;52.528;13.346;2022-12-15T07:12:35;34.83;;;13.50;;
15317;SDS011;7759;52.528;13.346;2022-12-15T07:15:01;31.80;;;13.40;;
15317;SDS011;7759;52.528;13.346;2022-12-15T07:17:27;30.00;;;13.23;;
15317;SDS011;7759;52.528;13.346;2022-12-15T07:19:53;29.60;;;12.53;;
15317;SDS011;7759;52.528;13.346;2022-12-15T07:22:19;26.93;;;11.10;;
15317;SDS011;7759;52.528;13.346;2022-12-15T07:24:46;24.03;;;11.47;;
15317;SDS011;7759;52.528;13.346;2022-12-15T07:27:12;26.10;;;12.10;;
15317;SDS011;7759;52.528;13.346;2022-12-15T07:29:38;27.87;;;11.50;;
15317;SDS011;7759;52.528;13.346;2022-12-15T07:32:04;26.17;;;11.73;;
15317;SDS011;7759;52.528;13.346;2022-12-15T07:34:30;19.47;;;9.03;;
15317;SDS011;7759;52.528;13.346;2022-12-15T07:36:56;29.23;;;12.60;;
15317;SDS011;7759;52.528;13.346;2022-12-15T07:39:22;31.77;;;13.50;;
15317;SDS011;7759;52.528;13.346;2022-12-15T07:41:48;31.07;;;13.90;;
15317;SDS011;7759;52.528;13.346;2022-12-15T07:44:14;28.83;;;11.30;;
15317;SDS011;7759;52.528;13.346;2022-12-15T07:46:40;23.43;;;10.53;;
15317;SDS011;7759;52.528;13.346;2022-12-15T07:49:10;29.33;;;11.97;;
15317;SDS011;7759;52.528;13.346;2022-12-15T07:51:36;21.73;;;10.30;;
15317;SDS011;7759;52.528;13.346;2022-12-15T07:54:02;34.07;;;13.90;;
15317;SDS011;7759;52.528;13.346;2022-12-15T07:56:28;28.70;;;11.53;;
15317;SDS011;7759;52.528;13.346;2022-12-15T07:58:54;31.07;;;13.00;;
15317;SDS011;7759;52.528;13.346;2022-12-15T08:01:20;23.33;;;10.50;;
15317;SDS011;7759;52.528;13.346;2022-12-15T08:03:46;23.67;;;10.33;;
15317;SDS011;7759;52.528;13.346;2022-12-15T08:06:13;24.57;;;10.63;;
15317;SDS011;7759;52.528;13.346;2022-12-15T08:08:39;20.50;;;10.13;;
15317;SDS011;7759;52.528;13.346;2022-12-15T08:11:05;29.93;;;11.67;;
15317;SDS011;7759;52.528;13.346;2022-12-15T08:13:32;28.67;;;12.10;;
15317;SDS011;7759;52.528;13.346;2022-12-15T08:15:58;44.93;;;16.03;;
15317;SDS011;7759;52.528;13.346;2022-12-15T08:18:24;27.30;;;11.30;;
15317;SDS011;7759;52.528;13.346;2022-12-15T08:20:50;23.50;;;10.70;;
15317;SDS011;7759;52.528;13.346;2022-12-15T08:23:16;24.20;;;11.13;;
15317;SDS011;7759;52.528;13.346;2022-12-15T08:25:42;30.93;;;13.30;;
15317;SDS011;7759;52.528;13.346;2022-12-15T08:28:08;27.37;;;11.53;;
15317;SDS011;7759;52.528;13.346;2022-12-15T08:30:33;25.83;;;11.80;;
15317;SDS011;7759;52.528;13.346;2022-12-15T08:33:01;25.33;;;10.87;;
15317;SDS011;7759;52.528;13.346;2022-12-15T08:35:27;25.13;;;11.70;;
15317;SDS011;7759;52.528;13.346;2022-12-15T08:37:53;28.00;;;11.90;;
15317;SDS011;7759;52.528;13.346;2022-12-15T08:40:18;28.47;;;12.70;;
15317;SDS011;7759;52.528;13.346;2022-12-15T08:42:44;32.93;;;13.23;;
15317;SDS011;7759;52.528;13.346;2022-12-15T08:45:10;25.43;;;11.73;;
15317;SDS011;7759;52.528;13.346;2022-12-15T08:47:37;25.97;;;11.17;;
15317;SDS011;7759;52.528;13.346;2022-12-15T08:50:03;25.67;;;10.73;;
15317;SDS011;7759;52.528;13.346;2022-12-15T08:52:30;29.57;;;12.33;;
15317;SDS011;7759;52.528;13.346;2022-12-15T08:54:56;21.27;;;10.40;;
15317;SDS011;7759;52.528;13.346;2022-12-15T08:57:22;31.23;;;12.27;;
15317;SDS011;7759;52.528;13.346;2022-12-15T08:59:48;30.73;;;12.70;;
15317;SDS011;7759;52.528;13.346;2022-12-15T09:02:14;25.23;;;10.87;;
15317;SDS011;7759;52.528;13.346;2022-12-15T09:04:40;32.73;;;12.23;;
15317;SDS011;7759;52.528;13.346;2022-12-15T09:07:06;26.80;;;12.00;;
15317;SDS011;7759;52.528;13.346;2022-12-15T09:09:32;29.27;;;12.43;;
15317;SDS011;7759;52.528;13.346;2022-12-15T09:11:58;26.97;;;10.47;;
15317;SDS011;7759;52.528;13.346;2022-12-15T09:14:24;22.47;;;9.73;;
15317;SDS011;7759;52.528;13.346;2022-12-15T09:16:50;17.83;;;8.53;;
15317;SDS011;7759;52.528;13.346;2022-12-15T09:19:16;28.67;;;11.20;;
15317;SDS011;7759;52.528;13.346;2022-12-15T09:21:43;23.47;;;9.87;;
15317;SDS011;7759;52.528;13.346;2022-12-15T09:24:09;26.00;;;12.43;;
15317;SDS011;7759;52.528;13.346;2022-12-15T09:26:36;25.17;;;11.87;;
15317;SDS011;7759;52.528;13.346;2022-12-15T09:29:02;22.70;;;8.83;;
15317;SDS011;7759;52.528;13.346;2022-12-15T09:31:32;21.20;;;8.97;;
15317;SDS011;7759;52.528;13.346;2022-12-15T09:33:58;23.00;;;10.03;;
15317;SDS011;7759;52.528;13.346;2022-12-15T09:36:25;23.47;;;10.13;;
15317;SDS011;7759;52.528;13.346;2022-12-15T09:38:51;18.87;;;7.30;;
15317;SDS011;7759;52.528;13.346;2022-12-15T09:41:21;21.73;;;9.30;;
15317;SDS011;7759;52.528;13.346;2022-12-15T09:43:50;24.67;;;10.37;;
15317;SDS011;7759;52.528;13.346;2022-12-15T09:46:25;21.60;;;9.53;;
15317;SDS011;7759;52.528;13.346;2022-12-15T09:48:53;35.07;;;15.83;;
15317;SDS011;7759;52.528;13.346;2022-12-15T09:51:19;32.10;;;11.90;;
15317;SDS011;7759;52.528;13.346;2022-12-15T09:53:47;25.30;;;10.40;;
15317;SDS011;7759;52.528;13.346;2022-12-15T09:56:14;25.63;;;9.57;;
15317;SDS011;7759;52.528;13.346;2022-12-15T09:58:47;26.63;;;8.33;;
15317;SDS011;7759;52.528;13.346;2022-12-15T10:01:21;26.63;;;9.73;;
15317;SDS011;7759;52.528;13.346;2022-12-15T10:06:23;20.33;;;8.60;;
15317;SDS011;7759;52.528;13.346;2022-12-15T10:09:01;26.07;;;10.57;;
15317;SDS011;7759;52.528;13.346;2022-12-15T10:21:52;23.87;;;9.37;;
15317;SDS011;7759;52.528;13.346;2022-12-15T10:24:19;20.07;;;8.40;;
15317;SDS011;7759;52.528;13.346;2022-12-15T10:26:48;24.10;;;10.50;;
15317;SDS011;7759;52.528;13.346;2022-12-15T10:29:21;24.57;;;10.07;;
15317;SDS011;7759;52.528;13.346;2022-12-15T10:31:53;25.00;;;10.97;;
15317;SDS011;7759;52.528;13.346;2022-12-15T10:34:32;23.57;;;10.07;;
15317;SDS011;7759;52.528;13.346;2022-12-15T10:36:59;21.40;;;8.50;;
15317;SDS011;7759;52.528;13.346;2022-12-15T10:39:38;22.43;;;9.47;;
15317;SDS011;7759;52.528;13.346;2022-12-15T10:42:08;21.40;;;10.50;;
15317;SDS011;7759;52.528;13.346;2022-12-15T10:44:36;22.50;;;10.13;;
15317;SDS011;7759;52.528;13.346;2022-12-15T10:49:44;26.30;;;10.73;;
15317;SDS011;7759;52.528;13.346;2022-12-15T10:52:52;22.73;;;9.87;;
15317;SDS011;7759;52.528;13.346;2022-12-15T10:54:59;20.40;;;9.17;;
15317;SDS011;7759;52.528;13.346;2022-12-15T10:57:26;22.53;;;8.87;;
15317;SDS011;7759;52.528;13.346;2022-12-15T10:59:54;24.17;;;10.27;;
15317;SDS011;7759;52.528;13.346;2022-12-15T11:04:56;28.50;;;11.77;;
15317;SDS011;7759;52.528;13.346;2022-12-15T11:07:22;27.57;;;10.70;;
15317;SDS011;7759;52.528;13.346;2022-12-15T11:09:53;23.93;;;11.27;;
15317;SDS011;7759;52.528;13.346;2022-12-15T11:12:23;23.67;;;9.17;;
15317;SDS011;7759;52.528;13.346;2022-12-15T11:17:45;21.57;;;9.30;;
15317;SDS011;7759;52.528;13.346;2022-12-15T11:20:17;19.17;;;8.47;;
15317;SDS011;7759;52.528;13.346;2022-12-15T11:22:48;25.50;;;10.20;;
15317;SDS011;7759;52.528;13.346;2022-12-15T11:25:21;24.97;;;9.57;;
15317;SDS011;7759;52.528;13.346;2022-12-15T11:27:48;26.37;;;11.30;;
15317;SDS011;7759;52.528;13.346;2022-12-15T11:30:16;21.37;;;10.43;;
15317;SDS011;7759;52.528;13.346;2022-12-15T11:32:46;24.87;;;10.67;;
15317;SDS011;7759;52.528;13.346;2022-12-15T11:35:14;25.10;;;11.80;;
15317;SDS011;7759;52.528;13.346;2022-12-15T11:37:43;23.10;;;10.20;;
15317;SDS011;7759;52.528;13.346;2022-12-15T11:45:24;31.23;;;10.47;;
15317;SDS011;7759;52.528;13.346;2022-12-15T11:47:56;26.47;;;9.77;;
15317;SDS011;7759;52.528;13.346;2022-12-15T11:50:26;25.10;;;10.73;;
15317;SDS011;7759;52.528;13.346;2022-12-15T11:53:04;25.87;;;10.30;;
15317;SDS011;7759;52.528;13.346;2022-12-15T11:58:22;22.23;;;10.27;;
15317;SDS011;7759;52.528;13.346;2022-12-15T12:00:59;22.97;;;9.73;;
15317;SDS011;7759;52.528;13.346;2022-12-15T12:03:42;22.73;;;9.33;;
15317;SDS011;7759;52.528;13.346;2022-12-15T12:06:18;23.03;;;10.83;;
15317;SDS011;7759;52.528;13.346;2022-12-15T12:09:00;23.60;;;10.43;;
15317;SDS011;7759;52.528;13.346;2022-12-15T12:11:31;25.03;;;8.53;;
15317;SDS011;7759;52.528;13.346;2022-12-15T12:14:20;21.60;;;9.57;;
15317;SDS011;7759;52.528;13.346;2022-12-15T12:17:01;17.30;;;8.77;;
15317;SDS011;7759;52.528;13.346;2022-12-15T12:19:31;16.13;;;7.57;;
15317;SDS011;7759;52.528;13.346;2022-12-15T12:22:02;22.87;;;9.80;;
15317;SDS011;7759;52.528;13.346;2022-12-15T12:24:37;25.43;;;10.70;;
15317;SDS011;7759;52.528;13.346;2022-12-15T12:27:06;21.37;;;9.60;;
15317;SDS011;7759;52.528;13.346;2022-12-15T12:29:46;30.27;;;9.53;;
15317;SDS011;7759;52.528;13.346;2022-12-15T12:32:32;18.23;;;8.87;;
15317;SDS011;7759;52.528;13.346;2022-12-15T12:35:15;27.60;;;10.70;;
15317;SDS011;7759;52.528;13.346;2022-12-15T12:37:48;24.67;;;10.07;;
15317;SDS011;7759;52.528;13.346;2022-12-15T12:43:00;16.70;;;8.10;;
15317;SDS011;7759;52.528;13.346;2022-12-15T12:45:39;21.77;;;9.47;;
15317;SDS011;7759;52.528;13.346;2022-12-15T12:48:19;21.00;;;9.33;;
15317;SDS011;7759;52.528;13.346;2022-12-15T12:50:48;22.37;;;9.53;;
15317;SDS011;7759;52.528;13.346;2022-12-15T12:53:26;19.63;;;9.63;;
15317;SDS011;7759;52.528;13.346;2022-12-15T12:55:55;24.73;;;10.53;;
15317;SDS011;7759;52.528;13.346;2022-12-15T12:58:32;24.73;;;10.93;;
15317;SDS011;7759;52.528;13.346;2022-12-15T13:01:03;22.13;;;9.87;;
15317;SDS011;7759;52.528;13.346;2022-12-15T13:03:29;19.07;;;8.77;;
15317;SDS011;7759;52.528;13.346;2022-12-15T13:05:55;23.10;;;9.10;;
15317;SDS011;7759;52.528;13.346;2022-12-15T13:08:28;24.87;;;9.47;;
15317;SDS011;7759;52.528;13.346;2022-12-15T13:13:54;18.43;;;9.57;;
15317;SDS011;7759;52.528;13.346;2022-12-15T13:16:23;20.60;;;9.87;;
15317;SDS011;7759;52.528;13.346;2022-12-15T13:24:04;21.13;;;10.07;;
15317;SDS011;7759;52.528;13.346;2022-12-15T13:26:31;19.10;;;8.30;;
15317;SDS011;7759;52.528;13.346;2022-12-15T13:28:56;20.93;;;9.43;;
15317;SDS011;7759;52.528;13.346;2022-12-15T13:31:24;23.20;;;10.20;;
15317;SDS011;7759;52.528;13.346;2022-12-15T13:42:23;25.43;;;10.40;;
15317;SDS011;7759;52.528;13.346;2022-12-15T13:46:49;13.27;;;6.27;;
15317;SDS011;7759;52.528;13.346;2022-12-15T13:52:10;17.33;;;8.53;;
15317;SDS011;7759;52.528;13.346;2022-12-15T13:54:40;20.00;;;9.53;;
15317;SDS011;7759;52.528;13.346;2022-12-15T13:57:13;19.80;;;9.23;;
15317;SDS011;7759;52.528;13.346;2022-12-15T13:59:47;21.50;;;8.90;;
15317;SDS011;7759;52.528;13.346;2022-12-15T14:02:35;21.67;;;10.03;;
15317;SDS011;7759;52.528;13.346;2022-12-15T14:05:04;20.00;;;9.67;;
15317;SDS011;7759;52.528;13.346;2022-12-15T14:07:31;19.23;;;7.27;;
15317;SDS011;7759;52.528;13.346;2022-12-15T14:09:57;23.47;;;10.17;;
15317;SDS011;7759;52.528;13.346;2022-12-15T14:12:23;24.13;;;11.27;;
15317;SDS011;7759;52.528;13.346;2022-12-15T14:14:49;19.90;;;8.57;;
15317;SDS011;7759;52.528;13.346;2022-12-15T14:17:16;24.73;;;10.70;;
15317;SDS011;7759;52.528;13.346;2022-12-15T14:19:44;27.43;;;9.90;;
15317;SDS011;7759;52.528;13.346;2022-12-15T14:22:27;22.23;;;10.20;;
15317;SDS011;7759;52.528;13.346;2022-12-15T14:24:58;24.70;;;10.57;;
15317;SDS011;7759;52.528;13.346;2022-12-15T14:27:28;19.93;;;9.97;;
15317;SDS011;7759;52.528;13.346;2022-12-15T14:32:39;22.60;;;9.90;;
15317;SDS011;7759;52.528;13.346;2022-12-15T14:35:13;21.07;;;10.07;;
15317;SDS011;7759;52.528;13.346;2022-12-15T14:37:40;16.90;;;8.07;;
15317;SDS011;7759;52.528;13.346;2022-12-15T14:40:11;18.43;;;9.47;;
15317;SDS011;7759;52.528;13.346;2022-12-15T14:42:37;22.23;;;10.00;;
15317;SDS011;7759;52.528;13.346;2022-12-15T14:45:05;26.07;;;11.07;;
15317;SDS011;7759;52.528;13.346;2022-12-15T14:47:32;20.23;;;9.23;;
15317;SDS011;7759;52.528;13.346;2022-12-15T14:49:59;19.20;;;8.57;;
15317;SDS011;7759;52.528;13.346;2022-12-15T14:52:27;19.17;;;8.77;;
15317;SDS011;7759;52.528;13.346;2022-12-15T14:54:55;50.30;;;18.83;;
15317;SDS011;7759;52.528;13.346;2022-12-15T14:57:26;30.23;;;15.18;;
15317;SDS011;7759;52.528;13.346;2022-12-15T14:59:52;18.40;;;10.23;;
15317;SDS011;7759;52.528;13.346;2022-12-15T15:04:56;27.27;;;12.30;;
15317;SDS011;7759;52.528;13.346;2022-12-15T15:07:23;31.70;;;12.97;;
15317;SDS011;7759;52.528;13.346;2022-12-15T15:09:50;25.53;;;11.63;;
15317;SDS011;7759;52.528;13.346;2022-12-15T15:12:17;31.73;;;12.73;;
15317;SDS011;7759;52.528;13.346;2022-12-15T15:14:53;25.20;;;11.03;;
15317;SDS011;7759;52.528;13.346;2022-12-15T15:17:21;29.93;;;14.67;;
15317;SDS011;7759;52.528;13.346;2022-12-15T15:19:48;33.40;;;16.27;;
15317;SDS011;7759;52.528;13.346;2022-12-15T15:22:30;39.47;;;17.27;;
15317;SDS011;7759;52.528;13.346;2022-12-15T15:24:58;28.67;;;13.20;;
15317;SDS011;7759;52.528;13.346;2022-12-15T15:27:26;24.83;;;10.53;;
15317;SDS011;7759;52.528;13.346;2022-12-15T15:29:52;27.87;;;11.37;;
15317;SDS011;7759;52.528;13.346;2022-12-15T15:32:30;28.07;;;11.83;;
15317;SDS011;7759;52.528;13.346;2022-12-15T15:34:56;26.63;;;11.40;;
15317;SDS011;7759;52.528;13.346;2022-12-15T15:37:23;26.27;;;10.27;;
15317;SDS011;7759;52.528;13.346;2022-12-15T15:39:50;25.83;;;10.67;;
15317;SDS011;7759;52.528;13.346;2022-12-15T15:42:16;28.33;;;11.50;;
15317;SDS011;7759;52.528;13.346;2022-12-15T15:44:42;24.33;;;10.37;;
15317;SDS011;7759;52.528;13.346;2022-12-15T15:47:20;18.63;;;9.53;;
15317;SDS011;7759;52.528;13.346;2022-12-15T15:49:48;22.07;;;10.60;;
15317;SDS011;7759;52.528;13.346;2022-12-15T15:52:15;26.83;;;11.57;;
15317;SDS011;7759;52.528;13.346;2022-12-15T15:54:41;18.57;;;9.33;;
15317;SDS011;7759;52.528;13.346;2022-12-15T15:57:12;22.33;;;10.43;;
15317;SDS011;7759;52.528;13.346;2022-12-15T15:59:39;26.03;;;11.83;;